createdAt,value
2022-08-07T00:00:25.456Z,23.56
2022-08-07T00:02:53.566Z,23.71
2022-08-07T00:05:23.625Z,23.72
2022-08-07T00:07:59.821Z,23.71
2022-08-07T00:10:30.771Z,23.70
2022-08-07T00:13:01.814Z,23.61
2022-08-07T00:15:38.360Z,23.53
2022-08-07T00:18:19.667Z,23.47
2022-08-07T00:20:54.503Z,23.42
2022-08-07T00:23:21.856Z,23.38
2022-08-07T00:25:59.005Z,23.32
2022-08-07T00:28:33.440Z,23.29
2022-08-07T00:31:06.249Z,23.24
2022-08-07T00:33:40.167Z,23.24
2022-08-07T00:36:08.399Z,23.28
2022-08-07T00:38:36.853Z,23.30
2022-08-07T00:41:10.091Z,23.22
2022-08-07T00:43:59.506Z,23.17
2022-08-07T00:46:30.179Z,23.13
2022-08-07T00:49:02.111Z,23.11
2022-08-07T00:51:58.342Z,23.11
2022-08-07T00:54:17.830Z,23.19
2022-08-07T00:56:49.784Z,23.24
2022-08-07T00:59:35.156Z,23.29
2022-08-07T01:02:14.171Z,23.31
2022-08-07T01:04:54.574Z,23.33
2022-08-07T01:07:27.593Z,23.31
2022-08-07T01:10:05.888Z,23.32
2022-08-07T01:12:39.465Z,23.32
2022-08-07T01:15:21.601Z,23.29
2022-08-07T01:17:49.289Z,23.29
2022-08-07T01:20:17.483Z,23.28
2022-08-07T01:22:54.199Z,23.28
2022-08-07T01:25:53.996Z,23.30
2022-08-07T01:28:20.326Z,23.34
2022-08-07T01:30:51.222Z,23.45
2022-08-07T01:33:19.819Z,23.56
2022-08-07T01:35:53.727Z,23.64
2022-08-07T01:38:24.841Z,23.72
2022-08-07T01:40:54.867Z,23.81
2022-08-07T01:43:22.833Z,23.87
2022-08-07T01:45:54.384Z,23.92
2022-08-07T01:48:30.242Z,23.97
2022-08-07T01:51:24.444Z,24.01
2022-08-07T01:54:09.206Z,24.05
2022-08-07T01:56:40.094Z,24.09
2022-08-07T01:59:17.781Z,24.10
2022-08-07T02:02:02.836Z,24.10
2022-08-07T02:04:55.866Z,24.09
2022-08-07T02:07:36.176Z,24.09
2022-08-07T02:10:14.565Z,24.08
2022-08-07T02:12:46.330Z,24.00
2022-08-07T02:15:14.573Z,23.95
2022-08-07T02:17:49.441Z,23.94
2022-08-07T02:20:23.951Z,23.90
2022-08-07T02:22:55.135Z,23.89
2022-08-07T02:26:10.532Z,23.86
2022-08-07T02:28:11.880Z,23.84
2022-08-07T02:30:39.775Z,23.85
2022-08-07T02:33:10.406Z,23.87
2022-08-07T02:36:30.569Z,23.88
2022-08-07T02:38:31.842Z,23.89
2022-08-07T02:41:00.634Z,23.87
2022-08-07T02:43:28.061Z,23.90
2022-08-07T02:46:01.731Z,23.89
2022-08-07T02:48:30.302Z,23.86
2022-08-07T02:50:59.574Z,23.86
2022-08-07T02:53:31.446Z,23.85
2022-08-07T02:56:17.568Z,23.87
2022-08-07T02:58:50.164Z,23.87
2022-08-07T03:01:35.499Z,23.86
2022-08-07T03:04:07.610Z,23.86
2022-08-07T03:06:40.445Z,23.84
2022-08-07T03:09:11.240Z,23.84
2022-08-07T03:11:51.508Z,23.86
2022-08-07T03:14:22.377Z,23.84
2022-08-07T03:16:50.188Z,23.82
2022-08-07T03:19:20.346Z,23.80
2022-08-07T03:21:50.574Z,23.81
2022-08-07T03:24:26.890Z,23.79
2022-08-07T03:26:59.712Z,23.78
2022-08-07T03:29:38.390Z,23.79
2022-08-07T03:32:13.362Z,23.76
2022-08-07T03:34:47.497Z,23.73
2022-08-07T03:37:37.382Z,23.70
2022-08-07T03:40:15.699Z,23.68
2022-08-07T03:42:44.561Z,23.66
2022-08-07T03:45:12.230Z,23.66
2022-08-07T03:47:58.158Z,23.67
2022-08-07T03:50:28.764Z,23.61
2022-08-07T03:52:58.773Z,23.59
2022-08-07T03:55:53.361Z,23.58
2022-08-07T03:59:05.128Z,23.56
2022-08-07T04:01:03.628Z,23.58
2022-08-07T04:03:49.991Z,23.57
2022-08-07T04:06:38.025Z,23.55
2022-08-07T04:09:08.471Z,23.54
2022-08-07T04:12:23.692Z,23.53
2022-08-07T04:14:38.859Z,23.54
2022-08-07T04:17:19.841Z,23.54
2022-08-07T04:19:52.271Z,23.53
2022-08-07T04:22:23.573Z,23.49
2022-08-07T04:24:58.092Z,23.49
2022-08-07T04:27:26.675Z,23.50
2022-08-07T04:30:01.446Z,23.53
2022-08-07T04:32:34.428Z,23.51
2022-08-07T04:35:05.582Z,23.56
2022-08-07T04:38:02.859Z,23.55
2022-08-07T04:40:21.467Z,23.55
2022-08-07T04:42:54.068Z,23.59
2022-08-07T04:45:57.542Z,23.61
2022-08-07T04:48:28.030Z,23.63
2022-08-07T04:51:05.934Z,23.61
2022-08-07T04:54:11.988Z,23.62
2022-08-07T04:58:09.708Z,23.65
2022-08-07T05:00:11.169Z,23.69
2022-08-07T05:02:39.503Z,23.70
2022-08-07T05:05:53.314Z,23.75
2022-08-07T05:08:02.721Z,23.77
2022-08-07T05:10:41.902Z,23.77
2022-08-07T05:14:53.825Z,23.81
2022-08-07T05:16:04.946Z,23.79
2022-08-07T05:18:45.414Z,23.82
2022-08-07T05:21:14.855Z,23.87
2022-08-07T05:23:45.857Z,23.89
2022-08-07T05:26:23.617Z,23.94
2022-08-07T05:28:56.361Z,24.02
2022-08-07T05:31:34.557Z,24.12
2022-08-07T05:34:05.870Z,24.14
2022-08-07T05:36:40.478Z,24.06
2022-08-07T05:40:04.856Z,24.03
2022-08-07T05:42:01.750Z,24.04
2022-08-07T05:44:33.772Z,24.07
2022-08-07T05:47:01.930Z,24.15
2022-08-07T05:49:49.884Z,24.17
2022-08-07T05:52:20.718Z,24.24
2022-08-07T05:55:07.283Z,24.30
2022-08-07T05:57:42.381Z,24.32
2022-08-07T06:00:16.121Z,24.42
2022-08-07T06:02:47.798Z,24.44
2022-08-07T06:05:15.589Z,24.51
2022-08-07T06:08:29.276Z,24.65
2022-08-07T06:10:31.510Z,24.66
2022-08-07T06:13:00.153Z,24.67
2022-08-07T06:15:39.015Z,24.74
2022-08-07T06:18:12.061Z,24.76
2022-08-07T06:20:49.610Z,24.81
2022-08-07T06:24:37.816Z,24.83
2022-08-07T06:26:15.420Z,24.79
2022-08-07T06:28:52.775Z,24.78
2022-08-07T06:31:20.615Z,24.84
2022-08-07T06:33:51.621Z,24.81
2022-08-07T06:36:35.019Z,24.83
2022-08-07T06:40:16.543Z,24.83
2022-08-07T06:42:01.952Z,24.83
2022-08-07T06:44:34.221Z,24.86
2022-08-07T06:47:12.075Z,24.92
2022-08-07T06:49:52.486Z,24.96
2022-08-07T06:52:31.918Z,25.05
2022-08-07T06:55:32.466Z,25.12
2022-08-07T06:58:14.202Z,25.10
2022-08-07T07:00:44.556Z,25.16
2022-08-07T07:03:13.882Z,25.22
2022-08-07T07:06:03.808Z,25.30
2022-08-07T07:08:33.180Z,25.38
2022-08-07T07:11:01.473Z,25.43
2022-08-07T07:13:58.340Z,25.50
2022-08-07T07:16:31.054Z,25.60
2022-08-07T07:19:04.140Z,25.72
2022-08-07T07:22:11.762Z,25.64
2022-08-07T07:24:42.926Z,25.59
2022-08-07T07:27:25.886Z,25.71
2022-08-07T07:30:09.929Z,25.82
2022-08-07T07:32:41.178Z,25.92
2022-08-07T07:35:11.195Z,25.85
2022-08-07T07:37:47.256Z,25.77
2022-08-07T07:40:27.877Z,25.66
2022-08-07T07:42:56.712Z,25.65
2022-08-07T07:46:36.664Z,25.65
2022-08-07T07:48:34.871Z,25.71
2022-08-07T07:51:07.501Z,25.83
2022-08-07T07:53:39.768Z,25.74
2022-08-07T07:56:30.219Z,25.86
2022-08-07T07:59:06.098Z,26.03
2022-08-07T08:02:05.084Z,26.09
2022-08-07T08:04:25.470Z,26.21
2022-08-07T08:06:54.240Z,26.46
2022-08-07T08:09:23.384Z,26.46
2022-08-07T08:12:01.959Z,26.37
2022-08-07T08:14:36.406Z,26.36
2022-08-07T08:18:17.503Z,26.42
2022-08-07T08:20:19.948Z,26.59
2022-08-07T08:23:08.135Z,26.51
2022-08-07T08:25:56.229Z,26.67
2022-08-07T08:28:38.686Z,26.79
2022-08-07T08:31:15.759Z,26.73
2022-08-07T08:33:49.777Z,26.88
2022-08-07T08:36:25.436Z,27.07
2022-08-07T08:38:54.231Z,27.06
2022-08-07T08:41:31.594Z,27.05
2022-08-07T08:44:33.205Z,27.13
2022-08-07T08:47:19.865Z,27.17
2022-08-07T08:50:05.714Z,27.30
2022-08-07T08:52:56.218Z,27.34
2022-08-07T08:55:54.831Z,27.49
2022-08-07T08:58:28.333Z,27.57
2022-08-07T09:01:19.385Z,27.59
2022-08-07T09:03:58.660Z,27.64
2022-08-07T09:06:47.820Z,27.73
2022-08-07T09:09:21.047Z,27.79
2022-08-07T09:12:19.983Z,27.81
2022-08-07T09:16:24.320Z,27.78
2022-08-07T09:17:59.670Z,27.83
2022-08-07T09:20:58.623Z,27.77
2022-08-07T09:24:31.272Z,27.93
2022-08-07T09:26:47.925Z,28.11
2022-08-07T09:30:03.760Z,28.17
2022-08-07T09:32:38.802Z,28.26
2022-08-07T09:36:05.383Z,28.45
2022-08-07T09:38:14.392Z,28.42
2022-08-07T09:41:00.184Z,28.45
2022-08-07T09:44:03.033Z,28.45
2022-08-07T09:47:25.279Z,28.54
2022-08-07T09:50:02.026Z,28.54
2022-08-07T09:52:34.228Z,28.64
2022-08-07T09:55:02.272Z,28.63
2022-08-07T09:57:30.208Z,28.52
2022-08-07T10:00:08.351Z,28.56
2022-08-07T10:02:55.483Z,28.73
2022-08-07T10:05:59.623Z,28.78
2022-08-07T10:08:25.920Z,28.89
2022-08-07T10:11:16.994Z,28.88
2022-08-07T10:14:01.360Z,28.77
2022-08-07T10:16:38.078Z,28.82
2022-08-07T10:19:19.141Z,29.05
2022-08-07T10:22:15.340Z,29.10
2022-08-07T10:24:46.532Z,29.17
2022-08-07T10:27:20.473Z,29.14
2022-08-07T10:29:59.434Z,29.11
2022-08-07T10:32:36.702Z,29.21
2022-08-07T10:35:20.504Z,29.48
2022-08-07T10:38:21.838Z,29.63
2022-08-07T10:40:56.127Z,29.51
2022-08-07T10:43:49.665Z,29.54
2022-08-07T10:46:25.134Z,29.65
2022-08-07T10:48:55.883Z,29.64
2022-08-07T10:51:39.619Z,29.66
2022-08-07T10:54:42.729Z,29.71
2022-08-07T10:57:39.405Z,29.70
2022-08-07T11:00:36.340Z,29.75
2022-08-07T11:03:03.425Z,29.87
2022-08-07T11:05:57.647Z,29.75
2022-08-07T11:09:04.411Z,29.55
2022-08-07T11:11:51.955Z,29.47
2022-08-07T11:15:00.436Z,29.35
2022-08-07T11:17:42.711Z,29.31
2022-08-07T11:20:16.402Z,29.38
2022-08-07T11:23:03.279Z,29.51
2022-08-07T11:25:36.088Z,29.36
2022-08-07T11:28:17.573Z,29.38
2022-08-07T11:30:47.619Z,29.57
2022-08-07T11:33:53.832Z,29.69
2022-08-07T11:36:25.455Z,29.82
2022-08-07T11:38:58.359Z,29.99
2022-08-07T11:42:00.414Z,30.04
2022-08-07T11:44:40.157Z,30.23
2022-08-07T11:47:29.713Z,30.41
2022-08-07T11:50:32.462Z,30.42
2022-08-07T11:53:21.913Z,30.23
2022-08-07T11:56:26.769Z,30.16
2022-08-07T12:00:09.974Z,30.30
2022-08-07T12:02:01.369Z,30.48
2022-08-07T12:04:37.170Z,30.58
2022-08-07T12:07:39.032Z,30.63
2022-08-07T12:10:19.561Z,30.75
2022-08-07T12:12:53.256Z,30.86
2022-08-07T12:15:45.983Z,30.94
2022-08-07T12:18:29.828Z,31.00
2022-08-07T12:20:57.834Z,30.99
2022-08-07T12:24:06.403Z,31.01
2022-08-07T12:26:23.437Z,30.90
2022-08-07T12:29:03.623Z,30.83
2022-08-07T12:32:01.755Z,30.97
2022-08-07T12:34:31.767Z,30.99
2022-08-07T12:36:59.688Z,31.03
2022-08-07T12:39:43.239Z,31.00
2022-08-07T12:42:13.504Z,31.05
2022-08-07T12:44:44.995Z,30.96
2022-08-07T12:47:27.129Z,30.99
2022-08-07T12:50:04.718Z,31.12
2022-08-07T12:52:47.807Z,31.19
2022-08-07T12:55:40.665Z,31.28
2022-08-07T12:58:12.903Z,31.32
2022-08-07T13:01:00.158Z,31.22
2022-08-07T13:03:55.059Z,31.31
2022-08-07T13:07:01.202Z,31.36
2022-08-07T13:10:37.507Z,31.30
2022-08-07T13:12:52.552Z,31.35
2022-08-07T13:15:29.334Z,31.42
2022-08-07T13:18:26.023Z,31.41
2022-08-07T13:21:12.232Z,31.59
2022-08-07T13:24:04.742Z,31.62
2022-08-07T13:26:51.189Z,31.53
2022-08-07T13:29:26.853Z,31.62
2022-08-07T13:32:23.696Z,31.58
2022-08-07T13:34:54.590Z,31.60
2022-08-07T13:37:32.103Z,31.63
2022-08-07T13:40:35.451Z,31.69
2022-08-07T13:42:54.870Z,31.59
2022-08-07T13:46:20.685Z,31.61
2022-08-07T13:48:27.565Z,31.61
2022-08-07T13:51:01.433Z,31.72
2022-08-07T13:53:36.031Z,31.74
2022-08-07T13:56:35.638Z,31.72
2022-08-07T13:59:12.088Z,31.70
2022-08-07T14:01:59.395Z,31.66
2022-08-07T14:04:35.447Z,31.70
2022-08-07T14:07:09.206Z,31.61
2022-08-07T14:10:02.332Z,31.51
2022-08-07T14:12:41.440Z,31.64
2022-08-07T14:15:16.650Z,31.72
2022-08-07T14:18:12.965Z,31.77
2022-08-07T14:22:40.945Z,31.81
2022-08-07T14:23:59.551Z,31.74
2022-08-07T14:26:29.844Z,31.75
2022-08-07T14:29:08.625Z,31.65
2022-08-07T14:31:56.110Z,31.64
2022-08-07T14:34:29.564Z,31.73
2022-08-07T14:36:59.434Z,31.97
2022-08-07T14:40:16.377Z,32.06
2022-08-07T14:42:23.251Z,32.04
2022-08-07T14:44:59.757Z,32.03
2022-08-07T14:47:31.477Z,32.05
2022-08-07T14:50:05.215Z,32.06
2022-08-07T14:52:35.983Z,32.07
2022-08-07T14:55:05.586Z,32.04
2022-08-07T14:57:58.648Z,32.15
2022-08-07T15:00:30.406Z,32.08
2022-08-07T15:02:59.279Z,32.09
2022-08-07T15:08:21.858Z,32.22
2022-08-07T15:11:04.321Z,32.31
2022-08-07T15:13:36.812Z,32.29
2022-08-07T15:18:55.889Z,32.29
2022-08-07T15:21:44.023Z,32.33
2022-08-07T15:25:15.013Z,32.17
2022-08-07T15:27:12.081Z,31.92
2022-08-07T15:30:09.145Z,31.87
2022-08-07T15:32:40.072Z,31.73
2022-08-07T15:35:19.803Z,31.63
2022-08-07T15:38:17.659Z,31.53
2022-08-07T15:41:23.094Z,31.43
2022-08-07T15:43:56.354Z,31.40
2022-08-07T15:49:16.307Z,31.83
2022-08-07T15:54:26.487Z,32.22
2022-08-07T15:56:59.026Z,32.23
2022-08-07T15:59:39.225Z,32.11
2022-08-07T16:02:15.218Z,31.89
2022-08-07T16:04:43.979Z,31.75
2022-08-07T16:08:33.332Z,31.66
2022-08-07T16:10:14.768Z,31.70
2022-08-07T16:13:17.797Z,31.84
2022-08-07T16:16:06.389Z,32.06
2022-08-07T16:18:49.836Z,32.28
2022-08-07T16:22:01.419Z,32.37
2022-08-07T16:24:52.674Z,32.75
2022-08-07T16:27:25.971Z,33.02
2022-08-07T16:30:30.240Z,33.50
2022-08-07T16:34:02.860Z,33.90
2022-08-07T16:36:01.260Z,34.25
2022-08-07T16:39:00.975Z,34.33
2022-08-07T16:41:54.061Z,34.26
2022-08-07T16:44:47.276Z,34.13
2022-08-07T16:47:16.568Z,34.11
2022-08-07T16:50:35.887Z,34.19
2022-08-07T16:54:02.606Z,34.37
2022-08-07T16:56:01.721Z,34.30
2022-08-07T16:59:10.769Z,33.90
2022-08-07T17:01:41.730Z,32.93
2022-08-07T17:04:12.463Z,32.25
2022-08-07T17:07:03.305Z,31.75
2022-08-07T17:10:05.165Z,31.42
2022-08-07T17:12:48.633Z,31.11
2022-08-07T17:15:20.576Z,30.97
2022-08-07T17:17:47.981Z,30.85
2022-08-07T17:20:20.830Z,30.74
2022-08-07T17:23:13.064Z,30.67
2022-08-07T17:25:51.896Z,30.59
2022-08-07T17:28:31.071Z,30.54
2022-08-07T17:31:18.384Z,30.45
2022-08-07T17:34:15.093Z,30.37
2022-08-07T17:36:57.448Z,30.29
2022-08-07T17:39:58.688Z,30.18
2022-08-07T17:42:36.257Z,30.03
2022-08-07T17:45:43.610Z,29.90
2022-08-07T17:48:30.671Z,29.83
2022-08-07T17:51:21.318Z,29.75
2022-08-07T17:54:00.772Z,29.66
2022-08-07T17:56:35.269Z,29.60
2022-08-07T17:59:09.057Z,29.55
2022-08-07T18:01:39.584Z,29.47
2022-08-07T18:04:16.232Z,29.41
2022-08-07T18:07:19.301Z,29.35
2022-08-07T18:10:05.133Z,29.28
2022-08-07T18:12:40.747Z,29.18
2022-08-07T18:15:37.405Z,29.13
2022-08-07T18:18:47.643Z,29.07
2022-08-07T18:21:42.211Z,29.03
2022-08-07T18:23:58.617Z,28.96
2022-08-07T18:26:42.835Z,28.89
2022-08-07T18:30:06.027Z,28.84
2022-08-07T18:32:38.166Z,28.80
2022-08-07T18:35:10.389Z,28.78
2022-08-07T18:38:55.947Z,28.74
2022-08-07T18:41:08.028Z,28.70
2022-08-07T18:43:57.387Z,28.64
2022-08-07T18:46:37.011Z,28.61
2022-08-07T18:50:06.036Z,28.60
2022-08-07T18:52:38.023Z,28.59
2022-08-07T18:55:42.319Z,28.54
2022-08-07T18:58:00.546Z,28.44
2022-08-07T19:00:59.274Z,28.37
2022-08-07T19:03:42.736Z,28.28
2022-08-07T19:06:16.844Z,28.21
2022-08-07T19:09:09.336Z,28.14
2022-08-07T19:12:05.724Z,28.09
2022-08-07T19:14:42.465Z,28.02
2022-08-07T19:17:55.725Z,27.97
2022-08-07T19:20:32.741Z,27.91
2022-08-07T19:23:57.227Z,27.83
2022-08-07T19:26:25.142Z,27.75
2022-08-07T19:31:04.230Z,27.71
2022-08-07T19:32:08.237Z,27.70
2022-08-07T19:34:38.808Z,27.68
2022-08-07T19:37:10.035Z,27.65
2022-08-07T19:39:57.963Z,27.59
2022-08-07T19:42:31.165Z,27.50
2022-08-07T19:45:08.522Z,27.43
2022-08-07T19:47:38.678Z,27.31
2022-08-07T19:50:43.923Z,27.25
2022-08-07T19:52:59.023Z,27.17
2022-08-07T19:55:57.604Z,27.13
2022-08-07T19:58:18.326Z,27.10
2022-08-07T20:00:56.608Z,27.06
2022-08-07T20:03:34.959Z,27.01
2022-08-07T20:06:05.436Z,26.96
2022-08-07T20:08:35.906Z,26.95
2022-08-07T20:11:09.767Z,26.89
2022-08-07T20:13:45.566Z,26.86
2022-08-07T20:16:26.152Z,26.81
2022-08-07T20:19:10.048Z,26.80
2022-08-07T20:21:47.765Z,26.79
2022-08-07T20:24:35.854Z,26.80
2022-08-07T20:27:11.722Z,26.77
2022-08-07T20:29:56.780Z,26.77
2022-08-07T20:32:36.211Z,26.73
2022-08-07T20:35:10.321Z,26.69
2022-08-07T20:37:55.696Z,26.67
2022-08-07T20:40:31.298Z,26.65
2022-08-07T20:43:02.319Z,26.61
2022-08-07T20:46:25.921Z,26.56
2022-08-07T20:48:29.862Z,26.52
2022-08-07T20:50:59.994Z,26.49
2022-08-07T20:54:02.992Z,26.46
2022-08-07T20:56:16.638Z,26.35
2022-08-07T20:58:53.827Z,26.29
2022-08-07T21:01:23.155Z,26.21
2022-08-07T21:04:18.589Z,26.14
2022-08-07T21:06:46.546Z,26.10
2022-08-07T21:09:24.128Z,26.11
2022-08-07T21:11:55.724Z,26.12
2022-08-07T21:14:32.121Z,26.12
2022-08-07T21:18:00.741Z,26.12
2022-08-07T21:19:50.683Z,26.15
2022-08-07T21:22:28.901Z,26.15
2022-08-07T21:25:12.507Z,26.12
2022-08-07T21:27:49.749Z,26.11
2022-08-07T21:30:24.365Z,26.11
2022-08-07T21:33:00.193Z,26.12
2022-08-07T21:36:05.087Z,26.13
2022-08-07T21:38:29.356Z,26.14
2022-08-07T21:40:56.593Z,26.12
2022-08-07T21:43:47.231Z,26.13
2022-08-07T21:46:24.662Z,26.06
2022-08-07T21:49:03.423Z,26.00
2022-08-07T21:51:51.104Z,25.96
2022-08-07T21:54:27.800Z,25.95
2022-08-07T21:57:30.897Z,25.95
2022-08-07T22:00:21.959Z,25.92
2022-08-07T22:03:06.340Z,25.94
2022-08-07T22:05:44.304Z,25.97
2022-08-07T22:08:18.827Z,25.97
2022-08-07T22:10:53.491Z,25.95
2022-08-07T22:13:24.522Z,25.92
2022-08-07T22:16:39.514Z,25.93
2022-08-07T22:19:18.130Z,25.92
2022-08-07T22:22:20.858Z,25.88
2022-08-07T22:24:54.706Z,25.74
2022-08-07T22:28:03.172Z,25.65
2022-08-07T22:30:19.257Z,25.48
2022-08-07T22:33:01.718Z,25.33
2022-08-07T22:35:39.572Z,25.28
2022-08-07T22:38:14.131Z,25.27
2022-08-07T22:40:54.846Z,25.25
2022-08-07T22:43:42.473Z,25.23
2022-08-07T22:46:47.117Z,25.22
2022-08-07T22:49:11.268Z,25.30
2022-08-07T22:52:01.597Z,25.23
2022-08-07T22:54:49.053Z,25.14
2022-08-07T22:57:37.420Z,25.04
2022-08-07T23:00:28.496Z,25.01
2022-08-07T23:03:14.919Z,24.96
2022-08-07T23:06:09.519Z,24.91
2022-08-07T23:08:45.843Z,24.86
2022-08-07T23:11:28.062Z,24.85
2022-08-07T23:14:22.816Z,24.86
2022-08-07T23:16:59.026Z,24.89
2022-08-07T23:20:04.050Z,24.86
2022-08-07T23:22:31.800Z,24.78
2022-08-07T23:24:59.228Z,24.74
2022-08-07T23:28:21.347Z,24.70
2022-08-07T23:31:05.646Z,24.68
2022-08-07T23:34:34.105Z,24.66
2022-08-07T23:36:39.164Z,24.62
2022-08-07T23:39:33.248Z,24.63
2022-08-07T23:42:08.357Z,24.60
2022-08-07T23:44:54.355Z,24.60
2022-08-07T23:47:42.229Z,24.60
2022-08-07T23:50:23.078Z,24.55
2022-08-07T23:53:08.419Z,24.53
2022-08-07T23:55:53.197Z,24.52
2022-08-07T23:58:25.584Z,24.50
